sensor_id;sensor_type;location;lat;lon;timestamp;pressure;altitude;pressure_sealevel;temperature;humidity
60817;BME280;51921;51.518;-3.188;2023-03-25T00:01:31;99486.26;;;4.25;100.00
60817;BME280;51921;51.518;-3.188;2023-03-25T00:03:57;99470.99;;;4.36;100.00
60817;BME280;51921;51.518;-3.188;2023-03-25T00:06:21;99494.44;;;4.41;100.00
60817;BME280;51921;51.518;-3.188;2023-03-25T00:08:47;99485.88;;;4.14;100.00
60817;BME280;51921;51.518;-3.188;2023-03-25T00:11:13;99490.85;;;4.69;100.00
60817;BME280;51921;51.518;-3.188;2023-03-25T00:13:38;99498.85;;;4.77;100.00
60817;BME280;51921;51.518;-3.188;2023-03-25T00:16:04;99535.09;;;4.11;100.00
60817;BME280;51921;51.518;-3.188;2023-03-25T00:18:30;99537.27;;;3.77;100.00
60817;BME280;51921;51.518;-3.188;2023-03-25T00:20:54;99547.92;;;3.16;100.00
60817;BME280;51921;51.518;-3.188;2023-03-25T00:23:21;99529.55;;;3.38;100.00
60817;BME280;51921;51.518;-3.188;2023-03-25T00:25:44;99533.85;;;2.95;100.00
60817;BME280;51921;51.518;-3.188;2023-03-25T00:28:10;99556.83;;;3.12;100.00
60817;BME280;51921;51.518;-3.188;2023-03-25T00:30:37;99543.88;;;3.18;100.00
60817;BME280;51921;51.518;-3.188;2023-03-25T00:33:01;99575.54;;;3.27;100.00
60817;BME280;51921;51.518;-3.188;2023-03-25T00:35:26;99568.13;;;3.40;100.00
60817;BME280;51921;51.518;-3.188;2023-03-25T00:37:52;99564.49;;;3.45;100.00
60817;BME280;51921;51.518;-3.188;2023-03-25T00:40:17;99534.62;;;3.46;100.00
60817;BME280;51921;51.518;-3.188;2023-03-25T00:42:43;99561.26;;;3.50;100.00
60817;BME280;51921;51.518;-3.188;2023-03-25T00:45:09;99551.73;;;3.52;100.00
60817;BME280;51921;51.518;-3.188;2023-03-25T00:47:33;99540.68;;;3.20;100.00
60817;BME280;51921;51.518;-3.188;2023-03-25T00:49:59;99548.60;;;3.55;100.00
60817;BME280;51921;51.518;-3.188;2023-03-25T00:52:25;99538.54;;;4.13;100.00
60817;BME280;51921;51.518;-3.188;2023-03-25T00:54:50;99540.23;;;3.90;100.00
60817;BME280;51921;51.518;-3.188;2023-03-25T00:57:15;99532.30;;;3.61;100.00
60817;BME280;51921;51.518;-3.188;2023-03-25T00:59:41;99548.68;;;3.84;100.00
60817;BME280;51921;51.518;-3.188;2023-03-25T01:02:06;99535.72;;;3.92;100.00
60817;BME280;51921;51.518;-3.188;2023-03-25T01:04:32;99548.88;;;3.94;100.00
60817;BME280;51921;51.518;-3.188;2023-03-25T01:06:57;99525.16;;;3.68;100.00
60817;BME280;51921;51.518;-3.188;2023-03-25T01:09:22;99538.96;;;3.88;100.00
60817;BME280;51921;51.518;-3.188;2023-03-25T01:11:48;99547.67;;;3.86;100.00
60817;BME280;51921;51.518;-3.188;2023-03-25T01:14:15;99541.90;;;4.02;100.00
60817;BME280;51921;51.518;-3.188;2023-03-25T01:16:39;99545.22;;;3.86;100.00
60817;BME280;51921;51.518;-3.188;2023-03-25T01:19:04;99547.68;;;3.95;100.00
60817;BME280;51921;51.518;-3.188;2023-03-25T01:21:29;99542.58;;;3.62;100.00
60817;BME280;51921;51.518;-3.188;2023-03-25T01:23:54;99554.21;;;3.75;100.00
60817;BME280;51921;51.518;-3.188;2023-03-25T01:26:19;99533.08;;;3.72;100.00
60817;BME280;51921;51.518;-3.188;2023-03-25T01:28:45;99557.80;;;3.89;100.00
60817;BME280;51921;51.518;-3.188;2023-03-25T01:31:13;99558.37;;;3.68;100.00
60817;BME280;51921;51.518;-3.188;2023-03-25T01:33:36;99539.98;;;3.67;100.00
60817;BME280;51921;51.518;-3.188;2023-03-25T01:36:01;99550.40;;;3.87;100.00
60817;BME280;51921;51.518;-3.188;2023-03-25T01:38:27;99556.40;;;3.87;100.00
60817;BME280;51921;51.518;-3.188;2023-03-25T01:40:52;99554.74;;;3.56;100.00
60817;BME280;51921;51.518;-3.188;2023-03-25T01:43:18;99557.83;;;4.00;100.00
60817;BME280;51921;51.518;-3.188;2023-03-25T01:45:43;99556.23;;;3.85;100.00
60817;BME280;51921;51.518;-3.188;2023-03-25T01:48:11;99568.07;;;4.04;100.00
60817;BME280;51921;51.518;-3.188;2023-03-25T01:50:35;99573.15;;;3.85;100.00
60817;BME280;51921;51.518;-3.188;2023-03-25T01:53:02;99574.96;;;3.71;100.00
60817;BME280;51921;51.518;-3.188;2023-03-25T01:55:25;99583.90;;;4.20;100.00
60817;BME280;51921;51.518;-3.188;2023-03-25T01:57:53;99584.99;;;4.13;100.00
60817;BME280;51921;51.518;-3.188;2023-03-25T02:00:16;99599.00;;;3.97;100.00
60817;BME280;51921;51.518;-3.188;2023-03-25T02:02:42;99596.98;;;3.97;100.00
60817;BME280;51921;51.518;-3.188;2023-03-25T02:05:09;99618.37;;;4.11;100.00
60817;BME280;51921;51.518;-3.188;2023-03-25T02:07:34;99606.18;;;3.59;100.00
60817;BME280;51921;51.518;-3.188;2023-03-25T02:09:59;99618.10;;;4.21;100.00
60817;BME280;51921;51.518;-3.188;2023-03-25T02:12:23;99599.67;;;3.76;100.00
60817;BME280;51921;51.518;-3.188;2023-03-25T02:14:49;99613.54;;;3.99;100.00
60817;BME280;51921;51.518;-3.188;2023-03-25T02:17:20;99618.91;;;3.98;100.00
60817;BME280;51921;51.518;-3.188;2023-03-25T02:22:24;99609.71;;;4.34;100.00
60817;BME280;51921;51.518;-3.188;2023-03-25T02:24:45;99597.00;;;4.03;100.00
60817;BME280;51921;51.518;-3.188;2023-03-25T02:27:08;99602.83;;;4.07;100.00
60817;BME280;51921;51.518;-3.188;2023-03-25T02:29:29;99607.48;;;3.90;100.00
60817;BME280;51921;51.518;-3.188;2023-03-25T02:31:54;99614.15;;;3.91;100.00
60817;BME280;51921;51.518;-3.188;2023-03-25T02:39:03;99623.04;;;3.97;100.00
60817;BME280;51921;51.518;-3.188;2023-03-25T02:41:35;99634.40;;;4.01;100.00
60817;BME280;51921;51.518;-3.188;2023-03-25T02:43:57;99627.08;;;3.80;100.00
60817;BME280;51921;51.518;-3.188;2023-03-25T02:46:21;99640.24;;;4.03;100.00
60817;BME280;51921;51.518;-3.188;2023-03-25T02:48:50;99641.97;;;4.57;100.00
60817;BME280;51921;51.518;-3.188;2023-03-25T02:51:15;99642.22;;;4.17;100.00
60817;BME280;51921;51.518;-3.188;2023-03-25T02:53:36;99638.77;;;4.24;100.00
60817;BME280;51921;51.518;-3.188;2023-03-25T02:56:04;99658.40;;;4.20;100.00
60817;BME280;51921;51.518;-3.188;2023-03-25T02:58:28;99642.85;;;3.91;100.00
60817;BME280;51921;51.518;-3.188;2023-03-25T03:00:52;99646.90;;;4.17;100.00
60817;BME280;51921;51.518;-3.188;2023-03-25T03:03:17;99666.74;;;3.95;100.00
60817;BME280;51921;51.518;-3.188;2023-03-25T03:05:44;99666.31;;;4.13;100.00
60817;BME280;51921;51.518;-3.188;2023-03-25T03:08:22;99659.62;;;4.21;100.00
60817;BME280;51921;51.518;-3.188;2023-03-25T03:10:39;99691.11;;;3.98;100.00
60817;BME280;51921;51.518;-3.188;2023-03-25T03:13:05;99679.02;;;3.90;100.00
60817;BME280;51921;51.518;-3.188;2023-03-25T03:15:33;99683.15;;;4.19;100.00
60817;BME280;51921;51.518;-3.188;2023-03-25T03:18:00;99687.07;;;4.06;100.00
60817;BME280;51921;51.518;-3.188;2023-03-25T03:20:18;99681.34;;;4.13;100.00
60817;BME280;51921;51.518;-3.188;2023-03-25T03:22:45;99685.32;;;4.42;100.00
60817;BME280;51921;51.518;-3.188;2023-03-25T03:25:14;99674.44;;;4.55;100.00
60817;BME280;51921;51.518;-3.188;2023-03-25T03:27:35;99678.15;;;4.23;100.00
60817;BME280;51921;51.518;-3.188;2023-03-25T03:30:03;99690.08;;;4.01;100.00
60817;BME280;51921;51.518;-3.188;2023-03-25T03:32:27;99691.19;;;4.30;100.00
60817;BME280;51921;51.518;-3.188;2023-03-25T03:34:50;99691.33;;;4.09;100.00
60817;BME280;51921;51.518;-3.188;2023-03-25T03:37:17;99680.38;;;3.96;100.00
60817;BME280;51921;51.518;-3.188;2023-03-25T03:39:39;99693.01;;;3.88;100.00
60817;BME280;51921;51.518;-3.188;2023-03-25T03:42:08;99674.71;;;3.84;100.00
60817;BME280;51921;51.518;-3.188;2023-03-25T03:44:33;99703.44;;;4.28;100.00
60817;BME280;51921;51.518;-3.188;2023-03-25T03:46:59;99697.19;;;3.88;100.00
60817;BME280;51921;51.518;-3.188;2023-03-25T03:49:27;99693.39;;;3.66;100.00
60817;BME280;51921;51.518;-3.188;2023-03-25T03:51:48;99687.54;;;3.95;100.00
60817;BME280;51921;51.518;-3.188;2023-03-25T03:54:14;99691.73;;;4.18;100.00
60817;BME280;51921;51.518;-3.188;2023-03-25T03:56:39;99695.02;;;3.98;100.00
60817;BME280;51921;51.518;-3.188;2023-03-25T03:59:04;99678.92;;;3.84;100.00
60817;BME280;51921;51.518;-3.188;2023-03-25T04:01:31;99686.33;;;3.78;100.00
60817;BME280;51921;51.518;-3.188;2023-03-25T04:03:54;99687.33;;;4.07;100.00
60817;BME280;51921;51.518;-3.188;2023-03-25T04:06:22;99689.29;;;3.81;100.00
60817;BME280;51921;51.518;-3.188;2023-03-25T04:08:49;99705.11;;;3.89;100.00
60817;BME280;51921;51.518;-3.188;2023-03-25T04:11:11;99712.95;;;4.02;100.00
60817;BME280;51921;51.518;-3.188;2023-03-25T04:13:36;99707.03;;;4.31;100.00
60817;BME280;51921;51.518;-3.188;2023-03-25T04:15:59;99724.58;;;4.34;100.00
60817;BME280;51921;51.518;-3.188;2023-03-25T04:18:24;99713.37;;;4.25;100.00
60817;BME280;51921;51.518;-3.188;2023-03-25T04:20:49;99709.54;;;3.79;100.00
60817;BME280;51921;51.518;-3.188;2023-03-25T04:23:15;99722.92;;;4.09;100.00
60817;BME280;51921;51.518;-3.188;2023-03-25T04:25:40;99729.70;;;3.87;100.00
60817;BME280;51921;51.518;-3.188;2023-03-25T04:28:07;99722.39;;;4.16;100.00
60817;BME280;51921;51.518;-3.188;2023-03-25T04:30:31;99712.92;;;4.10;100.00
60817;BME280;51921;51.518;-3.188;2023-03-25T04:32:57;99716.49;;;4.19;100.00
60817;BME280;51921;51.518;-3.188;2023-03-25T04:35:23;99720.75;;;4.23;100.00
60817;BME280;51921;51.518;-3.188;2023-03-25T04:37:48;99713.10;;;4.12;100.00
60817;BME280;51921;51.518;-3.188;2023-03-25T04:40:14;99709.18;;;4.20;100.00
60817;BME280;51921;51.518;-3.188;2023-03-25T04:42:39;99707.35;;;4.32;100.00
60817;BME280;51921;51.518;-3.188;2023-03-25T04:45:05;99723.84;;;4.40;100.00
60817;BME280;51921;51.518;-3.188;2023-03-25T04:47:30;99741.09;;;4.01;100.00
60817;BME280;51921;51.518;-3.188;2023-03-25T04:49:55;99745.52;;;4.16;100.00
60817;BME280;51921;51.518;-3.188;2023-03-25T04:52:21;99737.41;;;4.35;100.00
60817;BME280;51921;51.518;-3.188;2023-03-25T04:54:46;99750.32;;;4.18;100.00
60817;BME280;51921;51.518;-3.188;2023-03-25T04:57:12;99744.03;;;4.49;100.00
60817;BME280;51921;51.518;-3.188;2023-03-25T04:59:37;99759.54;;;4.20;100.00
60817;BME280;51921;51.518;-3.188;2023-03-25T05:02:03;99755.35;;;3.87;100.00
60817;BME280;51921;51.518;-3.188;2023-03-25T05:04:28;99758.06;;;4.00;100.00
60817;BME280;51921;51.518;-3.188;2023-03-25T05:06:54;99777.95;;;4.03;100.00
60817;BME280;51921;51.518;-3.188;2023-03-25T05:09:20;99778.93;;;4.05;100.00
60817;BME280;51921;51.518;-3.188;2023-03-25T05:11:45;99777.39;;;4.23;100.00
60817;BME280;51921;51.518;-3.188;2023-03-25T05:14:12;99796.96;;;3.85;100.00
60817;BME280;51921;51.518;-3.188;2023-03-25T05:16:36;99792.55;;;4.19;100.00
60817;BME280;51921;51.518;-3.188;2023-03-25T05:19:02;99789.39;;;4.07;100.00
60817;BME280;51921;51.518;-3.188;2023-03-25T05:21:27;99809.80;;;3.88;100.00
60817;BME280;51921;51.518;-3.188;2023-03-25T05:23:52;99808.36;;;3.96;100.00
60817;BME280;51921;51.518;-3.188;2023-03-25T05:26:18;99815.14;;;4.17;100.00
60817;BME280;51921;51.518;-3.188;2023-03-25T05:28:44;99807.77;;;4.16;100.00
60817;BME280;51921;51.518;-3.188;2023-03-25T05:31:09;99815.18;;;4.15;100.00
60817;BME280;51921;51.518;-3.188;2023-03-25T05:33:36;99820.13;;;4.19;100.00
60817;BME280;51921;51.518;-3.188;2023-03-25T05:36:00;99818.11;;;3.73;100.00
60817;BME280;51921;51.518;-3.188;2023-03-25T05:38:26;99815.98;;;4.14;100.00
60817;BME280;51921;51.518;-3.188;2023-03-25T05:40:52;99831.78;;;3.86;100.00
60817;BME280;51921;51.518;-3.188;2023-03-25T05:43:17;99832.31;;;3.97;100.00
60817;BME280;51921;51.518;-3.188;2023-03-25T05:45:43;99845.36;;;4.35;100.00
60817;BME280;51921;51.518;-3.188;2023-03-25T05:48:08;99845.59;;;4.00;100.00
60817;BME280;51921;51.518;-3.188;2023-03-25T05:50:35;99846.52;;;4.31;100.00
60817;BME280;51921;51.518;-3.188;2023-03-25T05:52:59;99848.40;;;3.93;100.00
60817;BME280;51921;51.518;-3.188;2023-03-25T05:55:25;99848.03;;;3.89;100.00
60817;BME280;51921;51.518;-3.188;2023-03-25T05:57:49;99845.31;;;4.31;100.00
60817;BME280;51921;51.518;-3.188;2023-03-25T06:00:17;99849.12;;;4.15;100.00
60817;BME280;51921;51.518;-3.188;2023-03-25T06:02:41;99850.08;;;3.93;100.00
60817;BME280;51921;51.518;-3.188;2023-03-25T06:05:07;99859.65;;;4.14;100.00
60817;BME280;51921;51.518;-3.188;2023-03-25T06:07:32;99874.99;;;4.03;100.00
60817;BME280;51921;51.518;-3.188;2023-03-25T06:09:57;99872.59;;;4.44;100.00
60817;BME280;51921;51.518;-3.188;2023-03-25T06:12:23;99889.68;;;4.53;100.00
60817;BME280;51921;51.518;-3.188;2023-03-25T06:14:49;99878.76;;;4.25;100.00
60817;BME280;51921;51.518;-3.188;2023-03-25T06:17:14;99884.81;;;4.37;100.00
60817;BME280;51921;51.518;-3.188;2023-03-25T06:19:39;99884.64;;;4.36;100.00
60817;BME280;51921;51.518;-3.188;2023-03-25T06:22:05;99896.49;;;4.21;100.00
60817;BME280;51921;51.518;-3.188;2023-03-25T06:24:30;99890.36;;;4.46;100.00
60817;BME280;51921;51.518;-3.188;2023-03-25T06:26:55;99900.32;;;4.41;100.00
60817;BME280;51921;51.518;-3.188;2023-03-25T06:29:21;99904.96;;;4.05;100.00
60817;BME280;51921;51.518;-3.188;2023-03-25T06:31:46;99907.42;;;4.35;100.00
60817;BME280;51921;51.518;-3.188;2023-03-25T06:34:11;99909.37;;;3.99;100.00
60817;BME280;51921;51.518;-3.188;2023-03-25T06:36:37;99918.84;;;4.24;100.00
60817;BME280;51921;51.518;-3.188;2023-03-25T06:39:02;99920.52;;;4.25;100.00
60817;BME280;51921;51.518;-3.188;2023-03-25T06:41:27;99917.70;;;3.99;100.00
60817;BME280;51921;51.518;-3.188;2023-03-25T06:43:53;99931.55;;;3.85;100.00
60817;BME280;51921;51.518;-3.188;2023-03-25T06:46:18;99939.62;;;3.90;100.00
60817;BME280;51921;51.518;-3.188;2023-03-25T06:48:43;99934.98;;;4.17;100.00
60817;BME280;51921;51.518;-3.188;2023-03-25T06:51:08;99941.34;;;4.38;100.00
60817;BME280;51921;51.518;-3.188;2023-03-25T06:53:34;99938.33;;;4.43;100.00
60817;BME280;51921;51.518;-3.188;2023-03-25T06:55:59;99940.09;;;4.42;100.00
60817;BME280;51921;51.518;-3.188;2023-03-25T06:58:25;99944.09;;;4.58;100.00
60817;BME280;51921;51.518;-3.188;2023-03-25T07:00:52;99950.97;;;4.45;100.00
60817;BME280;51921;51.518;-3.188;2023-03-25T07:03:15;99955.66;;;4.61;100.00
60817;BME280;51921;51.518;-3.188;2023-03-25T07:05:41;99952.27;;;5.02;100.00
60817;BME280;51921;51.518;-3.188;2023-03-25T07:08:06;99958.88;;;4.31;100.00
60817;BME280;51921;51.518;-3.188;2023-03-25T07:10:32;99950.67;;;4.76;100.00
60817;BME280;51921;51.518;-3.188;2023-03-25T07:12:57;99955.74;;;4.87;100.00
60817;BME280;51921;51.518;-3.188;2023-03-25T07:15:23;99975.13;;;4.54;100.00
60817;BME280;51921;51.518;-3.188;2023-03-25T07:17:48;99960.29;;;4.40;100.00
60817;BME280;51921;51.518;-3.188;2023-03-25T07:20:13;99964.45;;;4.69;100.00
60817;BME280;51921;51.518;-3.188;2023-03-25T07:22:38;99955.81;;;4.89;100.00
60817;BME280;51921;51.518;-3.188;2023-03-25T07:25:04;99972.98;;;4.58;100.00
60817;BME280;51921;51.518;-3.188;2023-03-25T07:27:28;99966.21;;;4.87;100.00
60817;BME280;51921;51.518;-3.188;2023-03-25T07:29:54;99962.04;;;4.94;100.00
60817;BME280;51921;51.518;-3.188;2023-03-25T07:32:19;99968.17;;;4.68;100.00
60817;BME280;51921;51.518;-3.188;2023-03-25T07:34:45;99977.73;;;4.85;100.00
60817;BME280;51921;51.518;-3.188;2023-03-25T07:37:10;99989.75;;;5.00;100.00
60817;BME280;51921;51.518;-3.188;2023-03-25T07:39:36;99977.76;;;4.84;100.00
60817;BME280;51921;51.518;-3.188;2023-03-25T07:42:02;99989.27;;;5.20;100.00
60817;BME280;51921;51.518;-3.188;2023-03-25T07:44:27;99985.87;;;4.86;100.00
60817;BME280;51921;51.518;-3.188;2023-03-25T07:46:53;99983.34;;;5.36;100.00
60817;BME280;51921;51.518;-3.188;2023-03-25T07:49:18;99999.99;;;5.17;100.00
60817;BME280;51921;51.518;-3.188;2023-03-25T07:51:44;99990.03;;;5.48;100.00
60817;BME280;51921;51.518;-3.188;2023-03-25T07:54:10;99999.89;;;5.68;100.00
60817;BME280;51921;51.518;-3.188;2023-03-25T07:56:36;99984.51;;;5.22;100.00
60817;BME280;51921;51.518;-3.188;2023-03-25T07:59:01;100009.26;;;5.06;100.00
60817;BME280;51921;51.518;-3.188;2023-03-25T08:01:27;100012.81;;;5.39;100.00
60817;BME280;51921;51.518;-3.188;2023-03-25T08:03:52;100021.76;;;5.43;100.00
60817;BME280;51921;51.518;-3.188;2023-03-25T08:06:18;100016.57;;;5.50;100.00
60817;BME280;51921;51.518;-3.188;2023-03-25T08:08:43;100008.87;;;6.42;100.00
60817;BME280;51921;51.518;-3.188;2023-03-25T08:11:08;100018.35;;;7.11;100.00
60817;BME280;51921;51.518;-3.188;2023-03-25T08:13:34;100006.38;;;6.96;100.00
60817;BME280;51921;51.518;-3.188;2023-03-25T08:15:59;100020.07;;;6.71;100.00
60817;BME280;51921;51.518;-3.188;2023-03-25T08:18:25;100020.22;;;6.77;100.00
60817;BME280;51921;51.518;-3.188;2023-03-25T08:20:50;100008.98;;;6.19;100.00
60817;BME280;51921;51.518;-3.188;2023-03-25T08:23:16;100033.12;;;6.16;100.00
60817;BME280;51921;51.518;-3.188;2023-03-25T08:25:41;100039.73;;;6.89;100.00
60817;BME280;51921;51.518;-3.188;2023-03-25T08:28:07;100051.47;;;6.84;100.00
60817;BME280;51921;51.518;-3.188;2023-03-25T08:30:34;100038.86;;;6.61;100.00
60817;BME280;51921;51.518;-3.188;2023-03-25T08:32:58;100047.60;;;6.89;100.00
60817;BME280;51921;51.518;-3.188;2023-03-25T08:35:24;100046.60;;;7.57;100.00
60817;BME280;51921;51.518;-3.188;2023-03-25T08:37:49;100022.60;;;7.41;100.00
60817;BME280;51921;51.518;-3.188;2023-03-25T08:40:14;100044.73;;;7.76;100.00
60817;BME280;51921;51.518;-3.188;2023-03-25T08:42:39;100049.03;;;8.48;100.00
60817;BME280;51921;51.518;-3.188;2023-03-25T08:45:06;100047.10;;;7.49;100.00
60817;BME280;51921;51.518;-3.188;2023-03-25T08:47:30;100057.92;;;6.97;100.00
60817;BME280;51921;51.518;-3.188;2023-03-25T08:49:56;100075.95;;;6.15;100.00
60817;BME280;51921;51.518;-3.188;2023-03-25T08:52:21;100065.71;;;6.07;100.00
60817;BME280;51921;51.518;-3.188;2023-03-25T08:54:47;100075.07;;;6.29;100.00
60817;BME280;51921;51.518;-3.188;2023-03-25T08:57:12;100080.53;;;6.82;100.00
60817;BME280;51921;51.518;-3.188;2023-03-25T08:59:37;100076.93;;;6.94;100.00
60817;BME280;51921;51.518;-3.188;2023-03-25T09:02:03;100085.28;;;7.13;100.00
60817;BME280;51921;51.518;-3.188;2023-03-25T09:04:28;100086.62;;;6.33;100.00
60817;BME280;51921;51.518;-3.188;2023-03-25T09:06:54;100094.72;;;6.21;100.00
60817;BME280;51921;51.518;-3.188;2023-03-25T09:09:19;100104.38;;;6.67;100.00
60817;BME280;51921;51.518;-3.188;2023-03-25T09:11:45;100104.29;;;6.67;100.00
60817;BME280;51921;51.518;-3.188;2023-03-25T09:14:10;100107.95;;;7.01;100.00
60817;BME280;51921;51.518;-3.188;2023-03-25T09:16:36;100097.30;;;7.02;100.00
60817;BME280;51921;51.518;-3.188;2023-03-25T09:19:01;100113.32;;;7.09;100.00
60817;BME280;51921;51.518;-3.188;2023-03-25T09:21:27;100127.07;;;7.28;100.00
60817;BME280;51921;51.518;-3.188;2023-03-25T09:23:52;100122.70;;;7.49;100.00
60817;BME280;51921;51.518;-3.188;2023-03-25T09:26:18;100128.59;;;7.11;100.00
60817;BME280;51921;51.518;-3.188;2023-03-25T09:28:43;100138.07;;;7.06;100.00
60817;BME280;51921;51.518;-3.188;2023-03-25T09:31:08;100125.26;;;7.26;100.00
60817;BME280;51921;51.518;-3.188;2023-03-25T09:33:34;100131.97;;;7.76;100.00
60817;BME280;51921;51.518;-3.188;2023-03-25T09:35:59;100133.21;;;6.70;100.00
60817;BME280;51921;51.518;-3.188;2023-03-25T09:38:24;100129.95;;;7.61;100.00
60817;BME280;51921;51.518;-3.188;2023-03-25T09:40:50;100129.17;;;7.64;100.00
60817;BME280;51921;51.518;-3.188;2023-03-25T09:43:27;100138.67;;;7.81;100.00
60817;BME280;51921;51.518;-3.188;2023-03-25T09:45:43;100140.76;;;7.89;100.00
60817;BME280;51921;51.518;-3.188;2023-03-25T09:48:18;100128.17;;;7.76;100.00
60817;BME280;51921;51.518;-3.188;2023-03-25T09:50:34;100127.89;;;7.79;100.00
60817;BME280;51921;51.518;-3.188;2023-03-25T09:53:00;100159.21;;;7.40;100.00
60817;BME280;51921;51.518;-3.188;2023-03-25T09:55:25;100161.25;;;7.33;100.00
60817;BME280;51921;51.518;-3.188;2023-03-25T09:57:50;100170.38;;;7.33;100.00
60817;BME280;51921;51.518;-3.188;2023-03-25T10:00:17;100167.60;;;7.45;100.00
60817;BME280;51921;51.518;-3.188;2023-03-25T10:02:41;100183.32;;;7.68;100.00
60817;BME280;51921;51.518;-3.188;2023-03-25T10:05:18;100183.00;;;7.29;100.00
60817;BME280;51921;51.518;-3.188;2023-03-25T10:07:41;100180.00;;;6.70;100.00
60817;BME280;51921;51.518;-3.188;2023-03-25T10:10:02;100186.61;;;6.63;100.00
60817;BME280;51921;51.518;-3.188;2023-03-25T10:12:32;100191.63;;;6.48;100.00
60817;BME280;51921;51.518;-3.188;2023-03-25T10:14:55;100194.45;;;6.75;100.00
60817;BME280;51921;51.518;-3.188;2023-03-25T10:17:18;100206.25;;;6.72;100.00
60817;BME280;51921;51.518;-3.188;2023-03-25T10:19:44;100213.82;;;7.52;100.00
60817;BME280;51921;51.518;-3.188;2023-03-25T10:22:03;100215.23;;;7.04;100.00
60817;BME280;51921;51.518;-3.188;2023-03-25T10:24:31;100223.81;;;7.02;100.00
60817;BME280;51921;51.518;-3.188;2023-03-25T10:26:58;100235.74;;;7.21;100.00
60817;BME280;51921;51.518;-3.188;2023-03-25T10:29:21;100218.12;;;6.73;100.00
60817;BME280;51921;51.518;-3.188;2023-03-25T10:31:49;100228.94;;;6.67;100.00
60817;BME280;51921;51.518;-3.188;2023-03-25T10:34:13;100242.24;;;6.96;100.00
60817;BME280;51921;51.518;-3.188;2023-03-25T10:36:38;100228.01;;;7.46;100.00
60817;BME280;51921;51.518;-3.188;2023-03-25T10:39:01;100223.95;;;7.39;100.00
60817;BME280;51921;51.518;-3.188;2023-03-25T10:41:29;100229.98;;;8.14;100.00
60817;BME280;51921;51.518;-3.188;2023-03-25T10:43:51;100229.47;;;8.44;100.00
60817;BME280;51921;51.518;-3.188;2023-03-25T10:46:24;100240.19;;;8.18;100.00
60817;BME280;51921;51.518;-3.188;2023-03-25T10:48:43;100238.51;;;8.04;100.00
60817;BME280;51921;51.518;-3.188;2023-03-25T10:51:10;100233.54;;;7.74;100.00
60817;BME280;51921;51.518;-3.188;2023-03-25T10:53:34;100234.97;;;8.43;100.00
60817;BME280;51921;51.518;-3.188;2023-03-25T10:56:02;100233.67;;;8.66;100.00
60817;BME280;51921;51.518;-3.188;2023-03-25T10:58:24;100235.65;;;9.31;100.00
60817;BME280;51921;51.518;-3.188;2023-03-25T11:00:49;100233.57;;;9.21;100.00
60817;BME280;51921;51.518;-3.188;2023-03-25T11:03:18;100246.21;;;8.19;100.00
60817;BME280;51921;51.518;-3.188;2023-03-25T11:05:40;100231.87;;;8.63;100.00
60817;BME280;51921;51.518;-3.188;2023-03-25T11:08:08;100240.92;;;8.56;100.00
60817;BME280;51921;51.518;-3.188;2023-03-25T11:10:32;100241.18;;;9.39;100.00
60817;BME280;51921;51.518;-3.188;2023-03-25T11:12:57;100249.88;;;8.49;100.00
60817;BME280;51921;51.518;-3.188;2023-03-25T11:15:24;100247.95;;;8.86;100.00
60817;BME280;51921;51.518;-3.188;2023-03-25T11:17:55;100248.41;;;8.71;100.00
60817;BME280;51921;51.518;-3.188;2023-03-25T11:20:18;100253.94;;;8.92;100.00
60817;BME280;51921;51.518;-3.188;2023-03-25T11:22:44;100251.79;;;8.91;100.00
60817;BME280;51921;51.518;-3.188;2023-03-25T11:25:06;100264.17;;;9.46;100.00
60817;BME280;51921;51.518;-3.188;2023-03-25T11:27:30;100257.19;;;9.05;100.00
60817;BME280;51921;51.518;-3.188;2023-03-25T11:29:58;100268.04;;;9.35;100.00
60817;BME280;51921;51.518;-3.188;2023-03-25T11:32:23;100276.32;;;9.11;100.00
60817;BME280;51921;51.518;-3.188;2023-03-25T11:34:47;100275.96;;;8.51;100.00
60817;BME280;51921;51.518;-3.188;2023-03-25T11:37:16;100267.75;;;9.20;100.00
60817;BME280;51921;51.518;-3.188;2023-03-25T11:39:37;100276.00;;;8.40;100.00
60817;BME280;51921;51.518;-3.188;2023-03-25T11:42:10;100265.21;;;8.07;100.00
60817;BME280;51921;51.518;-3.188;2023-03-25T11:44:29;100276.16;;;8.27;100.00
60817;BME280;51921;51.518;-3.188;2023-03-25T11:46:55;100284.79;;;8.13;100.00
60817;BME280;51921;51.518;-3.188;2023-03-25T11:49:20;100275.34;;;8.32;100.00
60817;BME280;51921;51.518;-3.188;2023-03-25T11:51:44;100272.03;;;8.45;100.00
60817;BME280;51921;51.518;-3.188;2023-03-25T11:54:13;100275.01;;;9.20;100.00
60817;BME280;51921;51.518;-3.188;2023-03-25T11:56:37;100274.96;;;9.02;100.00
60817;BME280;51921;51.518;-3.188;2023-03-25T11:59:01;100263.37;;;9.03;100.00
60817;BME280;51921;51.518;-3.188;2023-03-25T12:01:28;100268.93;;;8.68;100.00
60817;BME280;51921;51.518;-3.188;2023-03-25T12:03:54;100278.96;;;9.04;100.00
60817;BME280;51921;51.518;-3.188;2023-03-25T12:06:18;100275.84;;;9.48;100.00
60817;BME280;51921;51.518;-3.188;2023-03-25T12:08:48;100277.67;;;8.70;100.00
60817;BME280;51921;51.518;-3.188;2023-03-25T12:11:11;100277.88;;;9.08;100.00
60817;BME280;51921;51.518;-3.188;2023-03-25T12:13:42;100270.73;;;8.93;100.00
60817;BME280;51921;51.518;-3.188;2023-03-25T12:16:08;100263.70;;;9.71;100.00
60817;BME280;51921;51.518;-3.188;2023-03-25T12:18:39;100262.38;;;9.33;100.00
60817;BME280;51921;51.518;-3.188;2023-03-25T12:20:57;100255.55;;;10.14;98.94
60817;BME280;51921;51.518;-3.188;2023-03-25T12:23:19;100271.61;;;9.41;96.14
60817;BME280;51921;51.518;-3.188;2023-03-25T12:25:48;100272.59;;;9.41;98.19
60817;BME280;51921;51.518;-3.188;2023-03-25T12:28:22;100273.97;;;8.92;97.27
60817;BME280;51921;51.518;-3.188;2023-03-25T12:30:43;100254.51;;;8.62;97.62
60817;BME280;51921;51.518;-3.188;2023-03-25T12:33:04;100268.34;;;9.00;100.00
60817;BME280;51921;51.518;-3.188;2023-03-25T12:35:29;100280.35;;;8.30;100.00
60817;BME280;51921;51.518;-3.188;2023-03-25T12:38:00;100279.81;;;9.07;100.00
60817;BME280;51921;51.518;-3.188;2023-03-25T12:40:25;100279.30;;;9.10;100.00
60817;BME280;51921;51.518;-3.188;2023-03-25T12:42:45;100277.07;;;9.50;100.00